sensor_id;sensor_type;location;lat;lon;timestamp;P1;durP1;ratioP1;P2;durP2;ratioP2
17650;SDS011;26663;59.302;18.082;2024-03-07T00:00:07;4.80;;;3.60;;
17650;SDS011;26663;59.302;18.082;2024-03-07T00:03:20;4.20;;;3.90;;
17650;SDS011;26663;59.302;18.082;2024-03-07T00:06:26;7.60;;;4.57;;
17650;SDS011;26663;59.302;18.082;2024-03-07T00:09:31;5.50;;;4.40;;
17650;SDS011;26663;59.302;18.082;2024-03-07T00:12:35;7.23;;;4.90;;
17650;SDS011;26663;59.302;18.082;2024-03-07T00:15:41;7.27;;;4.50;;
17650;SDS011;26663;59.302;18.082;2024-03-07T00:18:46;8.03;;;4.57;;
17650;SDS011;26663;59.302;18.082;2024-03-07T00:21:50;8.20;;;4.83;;
17650;SDS011;26663;59.302;18.082;2024-03-07T00:24:54;5.60;;;4.93;;
17650;SDS011;26663;59.302;18.082;2024-03-07T00:27:58;6.23;;;4.90;;
17650;SDS011;26663;59.302;18.082;2024-03-07T00:31:05;6.50;;;4.37;;
17650;SDS011;26663;59.302;18.082;2024-03-07T00:34:12;4.93;;;4.50;;
17650;SDS011;26663;59.302;18.082;2024-03-07T00:37:26;8.37;;;5.13;;
17650;SDS011;26663;59.302;18.082;2024-03-07T00:40:30;8.60;;;4.90;;
17650;SDS011;26663;59.302;18.082;2024-03-07T00:43:34;10.80;;;4.87;;
17650;SDS011;26663;59.302;18.082;2024-03-07T00:46:38;6.07;;;5.47;;
17650;SDS011;26663;59.302;18.082;2024-03-07T00:49:43;10.30;;;5.40;;
17650;SDS011;26663;59.302;18.082;2024-03-07T00:52:48;8.47;;;5.23;;
17650;SDS011;26663;59.302;18.082;2024-03-07T00:55:52;9.37;;;5.63;;
17650;SDS011;26663;59.302;18.082;2024-03-07T00:58:56;7.20;;;5.00;;
17650;SDS011;26663;59.302;18.082;2024-03-07T01:01:59;11.77;;;5.20;;
17650;SDS011;26663;59.302;18.082;2024-03-07T01:05:05;6.00;;;4.97;;
17650;SDS011;26663;59.302;18.082;2024-03-07T01:08:12;10.20;;;5.13;;
17650;SDS011;26663;59.302;18.082;2024-03-07T01:11:16;9.27;;;4.83;;
17650;SDS011;26663;59.302;18.082;2024-03-07T01:14:20;9.37;;;5.47;;
17650;SDS011;26663;59.302;18.082;2024-03-07T01:17:25;14.60;;;5.70;;
17650;SDS011;26663;59.302;18.082;2024-03-07T01:20:30;8.20;;;5.73;;
17650;SDS011;26663;59.302;18.082;2024-03-07T01:23:34;11.00;;;5.60;;
17650;SDS011;26663;59.302;18.082;2024-03-07T01:26:38;11.03;;;5.40;;
17650;SDS011;26663;59.302;18.082;2024-03-07T01:29:42;10.33;;;5.50;;
17650;SDS011;26663;59.302;18.082;2024-03-07T01:32:47;8.27;;;5.60;;
17650;SDS011;26663;59.302;18.082;2024-03-07T01:35:52;5.47;;;4.93;;
17650;SDS011;26663;59.302;18.082;2024-03-07T01:38:56;9.73;;;5.00;;
17650;SDS011;26663;59.302;18.082;2024-03-07T01:42:00;5.10;;;4.60;;
17650;SDS011;26663;59.302;18.082;2024-03-07T01:45:04;9.57;;;5.00;;
17650;SDS011;26663;59.302;18.082;2024-03-07T01:48:10;8.93;;;5.20;;
17650;SDS011;26663;59.302;18.082;2024-03-07T01:51:17;6.63;;;5.13;;
17650;SDS011;26663;59.302;18.082;2024-03-07T01:54:21;14.13;;;5.50;;
17650;SDS011;26663;59.302;18.082;2024-03-07T01:57:26;13.03;;;5.07;;
17650;SDS011;26663;59.302;18.082;2024-03-07T02:00:30;8.87;;;5.10;;
17650;SDS011;26663;59.302;18.082;2024-03-07T02:03:34;5.97;;;4.97;;
17650;SDS011;26663;59.302;18.082;2024-03-07T02:06:40;11.33;;;5.03;;
17650;SDS011;26663;59.302;18.082;2024-03-07T02:09:44;9.67;;;5.10;;
17650;SDS011;26663;59.302;18.082;2024-03-07T02:12:48;6.90;;;5.20;;
17650;SDS011;26663;59.302;18.082;2024-03-07T02:15:52;6.10;;;4.90;;
17650;SDS011;26663;59.302;18.082;2024-03-07T02:18:56;11.17;;;4.93;;
17650;SDS011;26663;59.302;18.082;2024-03-07T02:22:02;13.20;;;5.07;;
17650;SDS011;26663;59.302;18.082;2024-03-07T02:25:06;10.30;;;5.00;;
17650;SDS011;26663;59.302;18.082;2024-03-07T02:28:12;9.50;;;4.83;;
17650;SDS011;26663;59.302;18.082;2024-03-07T02:31:16;11.37;;;5.17;;
17650;SDS011;26663;59.302;18.082;2024-03-07T02:34:21;9.33;;;4.87;;
17650;SDS011;26663;59.302;18.082;2024-03-07T02:37:26;7.87;;;5.57;;
17650;SDS011;26663;59.302;18.082;2024-03-07T02:40:30;7.17;;;4.77;;
17650;SDS011;26663;59.302;18.082;2024-03-07T02:43:34;8.47;;;5.10;;
17650;SDS011;26663;59.302;18.082;2024-03-07T02:46:40;9.50;;;5.17;;
17650;SDS011;26663;59.302;18.082;2024-03-07T02:49:44;10.63;;;4.70;;
17650;SDS011;26663;59.302;18.082;2024-03-07T02:52:49;13.20;;;4.60;;
17650;SDS011;26663;59.302;18.082;2024-03-07T02:55:55;13.60;;;4.77;;
17650;SDS011;26663;59.302;18.082;2024-03-07T02:58:59;7.77;;;4.67;;
17650;SDS011;26663;59.302;18.082;2024-03-07T03:02:06;11.27;;;4.73;;
17650;SDS011;26663;59.302;18.082;2024-03-07T03:05:09;12.27;;;5.20;;
17650;SDS011;26663;59.302;18.082;2024-03-07T03:08:15;9.40;;;4.87;;
17650;SDS011;26663;59.302;18.082;2024-03-07T03:11:20;6.27;;;4.50;;
17650;SDS011;26663;59.302;18.082;2024-03-07T03:14:24;12.10;;;4.83;;
17650;SDS011;26663;59.302;18.082;2024-03-07T03:17:28;14.20;;;4.90;;
17650;SDS011;26663;59.302;18.082;2024-03-07T03:20:33;10.97;;;5.20;;
17650;SDS011;26663;59.302;18.082;2024-03-07T03:23:39;7.47;;;4.57;;
17650;SDS011;26663;59.302;18.082;2024-03-07T03:29:47;9.37;;;4.70;;
17650;SDS011;26663;59.302;18.082;2024-03-07T03:32:53;9.17;;;4.73;;
17650;SDS011;26663;59.302;18.082;2024-03-07T03:35:58;6.70;;;4.23;;
17650;SDS011;26663;59.302;18.082;2024-03-07T03:39:03;10.23;;;4.73;;
17650;SDS011;26663;59.302;18.082;2024-03-07T03:42:09;13.40;;;4.40;;
17650;SDS011;26663;59.302;18.082;2024-03-07T03:45:13;13.37;;;4.80;;
17650;SDS011;26663;59.302;18.082;2024-03-07T03:48:17;9.47;;;4.30;;
17650;SDS011;26663;59.302;18.082;2024-03-07T03:51:21;5.13;;;4.70;;
17650;SDS011;26663;59.302;18.082;2024-03-07T03:54:28;8.80;;;5.10;;
17650;SDS011;26663;59.302;18.082;2024-03-07T03:57:32;11.67;;;4.70;;
17650;SDS011;26663;59.302;18.082;2024-03-07T04:00:37;8.77;;;4.63;;
17650;SDS011;26663;59.302;18.082;2024-03-07T04:03:41;4.97;;;4.47;;
17650;SDS011;26663;59.302;18.082;2024-03-07T04:06:49;7.03;;;4.70;;
17650;SDS011;26663;59.302;18.082;2024-03-07T04:09:54;11.13;;;5.07;;
17650;SDS011;26663;59.302;18.082;2024-03-07T04:12:58;9.30;;;4.57;;
17650;SDS011;26663;59.302;18.082;2024-03-07T04:28:21;12.00;;;4.77;;
17650;SDS011;26663;59.302;18.082;2024-03-07T04:31:25;8.53;;;4.53;;
17650;SDS011;26663;59.302;18.082;2024-03-07T04:34:29;7.70;;;4.40;;
17650;SDS011;26663;59.302;18.082;2024-03-07T04:37:33;8.90;;;4.55;;
17650;SDS011;26663;59.302;18.082;2024-03-07T04:40:40;4.67;;;4.23;;
17650;SDS011;26663;59.302;18.082;2024-03-07T04:43:44;8.40;;;4.23;;
17650;SDS011;26663;59.302;18.082;2024-03-07T04:53:00;8.93;;;5.10;;
17650;SDS011;26663;59.302;18.082;2024-03-07T04:56:06;10.30;;;4.63;;
17650;SDS011;26663;59.302;18.082;2024-03-07T04:59:12;6.67;;;3.93;;
17650;SDS011;26663;59.302;18.082;2024-03-07T05:02:16;4.63;;;4.20;;
17650;SDS011;26663;59.302;18.082;2024-03-07T05:05:20;9.50;;;4.33;;
17650;SDS011;26663;59.302;18.082;2024-03-07T05:08:28;4.55;;;4.10;;
17650;SDS011;26663;59.302;18.082;2024-03-07T05:14:36;5.57;;;3.53;;
17650;SDS011;26663;59.302;18.082;2024-03-07T05:17:40;9.93;;;3.87;;
17650;SDS011;26663;59.302;18.082;2024-03-07T05:20:46;5.63;;;3.70;;
17650;SDS011;26663;59.302;18.082;2024-03-07T05:23:51;4.63;;;4.27;;
17650;SDS011;26663;59.302;18.082;2024-03-07T05:26:57;9.00;;;3.80;;
17650;SDS011;26663;59.302;18.082;2024-03-07T05:30:01;10.17;;;3.77;;
17650;SDS011;26663;59.302;18.082;2024-03-07T05:33:09;4.00;;;3.70;;
17650;SDS011;26663;59.302;18.082;2024-03-07T05:36:13;11.30;;;4.23;;
17650;SDS011;26663;59.302;18.082;2024-03-07T05:39:17;8.20;;;3.80;;
17650;SDS011;26663;59.302;18.082;2024-03-07T05:42:22;4.43;;;3.70;;
17650;SDS011;26663;59.302;18.082;2024-03-07T05:45:27;5.13;;;4.40;;
17650;SDS011;26663;59.302;18.082;2024-03-07T05:48:31;12.13;;;4.00;;
17650;SDS011;26663;59.302;18.082;2024-03-07T05:51:35;5.20;;;3.63;;
17650;SDS011;26663;59.302;18.082;2024-03-07T05:54:39;10.07;;;4.03;;
17650;SDS011;26663;59.302;18.082;2024-03-07T05:57:44;5.37;;;4.00;;
17650;SDS011;26663;59.302;18.082;2024-03-07T06:00:48;7.23;;;4.10;;
17650;SDS011;26663;59.302;18.082;2024-03-07T06:03:53;5.43;;;3.70;;
17650;SDS011;26663;59.302;18.082;2024-03-07T06:06:58;5.50;;;3.60;;
17650;SDS011;26663;59.302;18.082;2024-03-07T06:10:02;3.47;;;3.27;;
17650;SDS011;26663;59.302;18.082;2024-03-07T06:13:10;9.73;;;3.83;;
17650;SDS011;26663;59.302;18.082;2024-03-07T06:16:14;6.03;;;3.50;;
17650;SDS011;26663;59.302;18.082;2024-03-07T06:19:18;13.63;;;3.77;;
17650;SDS011;26663;59.302;18.082;2024-03-07T06:22:22;5.73;;;3.53;;
17650;SDS011;26663;59.302;18.082;2024-03-07T06:25:26;10.23;;;3.53;;
17650;SDS011;26663;59.302;18.082;2024-03-07T06:28:40;3.67;;;2.97;;
17650;SDS011;26663;59.302;18.082;2024-03-07T06:31:45;9.80;;;3.37;;
17650;SDS011;26663;59.302;18.082;2024-03-07T06:34:49;3.57;;;3.13;;
17650;SDS011;26663;59.302;18.082;2024-03-07T06:37:53;4.23;;;3.10;;
17650;SDS011;26663;59.302;18.082;2024-03-07T06:40:57;5.40;;;3.23;;
17650;SDS011;26663;59.302;18.082;2024-03-07T06:44:03;5.90;;;3.23;;
17650;SDS011;26663;59.302;18.082;2024-03-07T06:47:07;3.60;;;3.30;;
17650;SDS011;26663;59.302;18.082;2024-03-07T06:50:11;3.43;;;3.00;;
17650;SDS011;26663;59.302;18.082;2024-03-07T06:53:28;3.40;;;3.10;;
17650;SDS011;26663;59.302;18.082;2024-03-07T06:56:32;6.43;;;3.33;;
17650;SDS011;26663;59.302;18.082;2024-03-07T06:59:37;3.67;;;3.00;;
17650;SDS011;26663;59.302;18.082;2024-03-07T07:02:41;3.67;;;2.80;;
17650;SDS011;26663;59.302;18.082;2024-03-07T07:05:46;3.43;;;3.20;;
17650;SDS011;26663;59.302;18.082;2024-03-07T07:08:51;3.53;;;2.67;;
17650;SDS011;26663;59.302;18.082;2024-03-07T07:11:55;9.63;;;3.07;;
17650;SDS011;26663;59.302;18.082;2024-03-07T07:15:00;3.10;;;2.90;;
17650;SDS011;26663;59.302;18.082;2024-03-07T07:18:04;2.73;;;2.63;;
17650;SDS011;26663;59.302;18.082;2024-03-07T07:21:09;3.47;;;3.00;;
17650;SDS011;26663;59.302;18.082;2024-03-07T07:24:16;3.43;;;3.17;;
17650;SDS011;26663;59.302;18.082;2024-03-07T07:27:22;6.93;;;3.33;;
17650;SDS011;26663;59.302;18.082;2024-03-07T07:30:27;3.37;;;3.10;;
17650;SDS011;26663;59.302;18.082;2024-03-07T07:33:31;3.10;;;2.90;;
17650;SDS011;26663;59.302;18.082;2024-03-07T07:36:35;4.27;;;2.90;;
17650;SDS011;26663;59.302;18.082;2024-03-07T07:39:39;3.10;;;2.90;;
17650;SDS011;26663;59.302;18.082;2024-03-07T07:42:43;3.17;;;2.87;;
17650;SDS011;26663;59.302;18.082;2024-03-07T07:45:50;3.33;;;3.13;;
17650;SDS011;26663;59.302;18.082;2024-03-07T07:48:54;2.83;;;2.73;;
17650;SDS011;26663;59.302;18.082;2024-03-07T07:51:58;10.30;;;2.80;;
17650;SDS011;26663;59.302;18.082;2024-03-07T07:55:02;4.73;;;2.80;;
17650;SDS011;26663;59.302;18.082;2024-03-07T07:58:07;3.43;;;2.90;;
17650;SDS011;26663;59.302;18.082;2024-03-07T08:01:12;5.07;;;3.03;;
17650;SDS011;26663;59.302;18.082;2024-03-07T08:04:18;3.53;;;3.07;;
17650;SDS011;26663;59.302;18.082;2024-03-07T08:07:21;4.93;;;2.87;;
17650;SDS011;26663;59.302;18.082;2024-03-07T08:10:26;5.70;;;2.80;;
17650;SDS011;26663;59.302;18.082;2024-03-07T08:13:31;3.50;;;3.30;;
17650;SDS011;26663;59.302;18.082;2024-03-07T08:16:37;2.70;;;2.60;;
17650;SDS011;26663;59.302;18.082;2024-03-07T08:19:41;3.80;;;3.50;;
17650;SDS011;26663;59.302;18.082;2024-03-07T08:22:46;2.93;;;2.80;;
17650;SDS011;26663;59.302;18.082;2024-03-07T08:25:53;2.63;;;2.43;;
17650;SDS011;26663;59.302;18.082;2024-03-07T08:28:58;3.00;;;2.77;;
17650;SDS011;26663;59.302;18.082;2024-03-07T08:32:06;2.73;;;2.60;;
17650;SDS011;26663;59.302;18.082;2024-03-07T08:35:11;2.83;;;2.70;;
17650;SDS011;26663;59.302;18.082;2024-03-07T08:38:15;6.37;;;2.70;;
17650;SDS011;26663;59.302;18.082;2024-03-07T08:44:39;6.00;;;2.90;;
17650;SDS011;26663;59.302;18.082;2024-03-07T08:47:46;4.83;;;2.80;;
17650;SDS011;26663;59.302;18.082;2024-03-07T08:50:51;7.23;;;2.83;;
17650;SDS011;26663;59.302;18.082;2024-03-07T08:53:56;2.93;;;2.70;;
17650;SDS011;26663;59.302;18.082;2024-03-07T08:57:01;6.37;;;2.90;;
17650;SDS011;26663;59.302;18.082;2024-03-07T09:00:08;9.23;;;2.70;;
17650;SDS011;26663;59.302;18.082;2024-03-07T09:03:16;2.80;;;2.50;;
17650;SDS011;26663;59.302;18.082;2024-03-07T09:06:21;6.20;;;3.07;;
17650;SDS011;26663;59.302;18.082;2024-03-07T09:09:25;3.23;;;2.50;;
17650;SDS011;26663;59.302;18.082;2024-03-07T09:12:29;3.27;;;2.53;;
17650;SDS011;26663;59.302;18.082;2024-03-07T09:15:34;5.63;;;2.27;;
17650;SDS011;26663;59.302;18.082;2024-03-07T09:18:41;2.93;;;2.47;;
17650;SDS011;26663;59.302;18.082;2024-03-07T09:21:46;3.60;;;2.90;;
17650;SDS011;26663;59.302;18.082;2024-03-07T09:24:52;8.30;;;2.90;;
17650;SDS011;26663;59.302;18.082;2024-03-07T09:27:56;3.00;;;2.60;;
17650;SDS011;26663;59.302;18.082;2024-03-07T09:31:00;4.27;;;2.43;;
17650;SDS011;26663;59.302;18.082;2024-03-07T09:34:06;10.90;;;2.90;;
17650;SDS011;26663;59.302;18.082;2024-03-07T09:37:10;5.63;;;2.90;;
17650;SDS011;26663;59.302;18.082;2024-03-07T09:40:15;5.80;;;2.50;;
17650;SDS011;26663;59.302;18.082;2024-03-07T09:43:19;5.47;;;2.37;;
17650;SDS011;26663;59.302;18.082;2024-03-07T09:46:24;4.50;;;2.10;;
17650;SDS011;26663;59.302;18.082;2024-03-07T09:49:31;6.23;;;2.63;;
17650;SDS011;26663;59.302;18.082;2024-03-07T09:52:38;4.93;;;2.70;;
17650;SDS011;26663;59.302;18.082;2024-03-07T09:55:44;7.07;;;2.90;;
17650;SDS011;26663;59.302;18.082;2024-03-07T09:58:49;5.10;;;2.57;;
17650;SDS011;26663;59.302;18.082;2024-03-07T10:01:55;3.83;;;2.30;;
17650;SDS011;26663;59.302;18.082;2024-03-07T10:05:01;3.67;;;2.47;;
17650;SDS011;26663;59.302;18.082;2024-03-07T10:08:05;4.13;;;2.70;;
17650;SDS011;26663;59.302;18.082;2024-03-07T10:11:10;3.90;;;2.10;;
17650;SDS011;26663;59.302;18.082;2024-03-07T10:14:16;9.40;;;2.60;;
17650;SDS011;26663;59.302;18.082;2024-03-07T10:17:23;6.13;;;2.70;;
17650;SDS011;26663;59.302;18.082;2024-03-07T10:20:29;2.57;;;2.10;;
17650;SDS011;26663;59.302;18.082;2024-03-07T10:23:33;10.93;;;2.47;;
17650;SDS011;26663;59.302;18.082;2024-03-07T10:26:37;2.93;;;2.40;;
17650;SDS011;26663;59.302;18.082;2024-03-07T10:29:42;7.17;;;2.50;;
17650;SDS011;26663;59.302;18.082;2024-03-07T10:32:46;11.33;;;2.50;;
17650;SDS011;26663;59.302;18.082;2024-03-07T10:35:52;2.60;;;2.33;;
17650;SDS011;26663;59.302;18.082;2024-03-07T10:38:56;6.53;;;2.53;;
17650;SDS011;26663;59.302;18.082;2024-03-07T10:42:14;5.50;;;2.47;;
17650;SDS011;26663;59.302;18.082;2024-03-07T10:45:19;1.87;;;1.87;;
17650;SDS011;26663;59.302;18.082;2024-03-07T10:48:24;2.47;;;2.30;;
17650;SDS011;26663;59.302;18.082;2024-03-07T10:51:36;4.43;;;2.37;;
17650;SDS011;26663;59.302;18.082;2024-03-07T10:54:48;5.93;;;2.43;;
17650;SDS011;26663;59.302;18.082;2024-03-07T10:58:18;3.70;;;2.60;;
17650;SDS011;26663;59.302;18.082;2024-03-07T11:01:30;6.30;;;2.37;;
17650;SDS011;26663;59.302;18.082;2024-03-07T11:04:36;7.73;;;2.60;;
17650;SDS011;26663;59.302;18.082;2024-03-07T11:07:41;3.13;;;2.50;;
17650;SDS011;26663;59.302;18.082;2024-03-07T11:10:46;3.13;;;2.33;;
17650;SDS011;26663;59.302;18.082;2024-03-07T11:13:50;5.27;;;2.93;;
17650;SDS011;26663;59.302;18.082;2024-03-07T11:16:55;4.40;;;2.50;;
17650;SDS011;26663;59.302;18.082;2024-03-07T11:23:27;5.57;;;2.80;;
17650;SDS011;26663;59.302;18.082;2024-03-07T11:26:32;4.37;;;2.80;;
17650;SDS011;26663;59.302;18.082;2024-03-07T11:29:40;5.97;;;2.90;;
17650;SDS011;26663;59.302;18.082;2024-03-07T11:32:49;10.03;;;2.50;;
17650;SDS011;26663;59.302;18.082;2024-03-07T11:35:56;14.63;;;2.97;;
17650;SDS011;26663;59.302;18.082;2024-03-07T11:39:02;9.10;;;2.60;;
17650;SDS011;26663;59.302;18.082;2024-03-07T11:42:26;3.17;;;2.00;;
17650;SDS011;26663;59.302;18.082;2024-03-07T11:45:33;4.30;;;2.30;;
17650;SDS011;26663;59.302;18.082;2024-03-07T11:48:41;8.40;;;2.47;;
17650;SDS011;26663;59.302;18.082;2024-03-07T11:51:45;14.77;;;3.40;;
17650;SDS011;26663;59.302;18.082;2024-03-07T11:54:52;7.37;;;2.63;;
17650;SDS011;26663;59.302;18.082;2024-03-07T11:58:06;6.40;;;2.30;;
17650;SDS011;26663;59.302;18.082;2024-03-07T12:01:11;5.77;;;2.57;;
17650;SDS011;26663;59.302;18.082;2024-03-07T12:04:16;5.07;;;2.43;;
17650;SDS011;26663;59.302;18.082;2024-03-07T12:07:20;5.67;;;2.60;;
17650;SDS011;26663;59.302;18.082;2024-03-07T12:10:26;5.63;;;2.30;;
17650;SDS011;26663;59.302;18.082;2024-03-07T12:19:38;4.60;;;2.17;;
17650;SDS011;26663;59.302;18.082;2024-03-07T12:22:42;5.03;;;2.30;;
17650;SDS011;26663;59.302;18.082;2024-03-07T12:25:58;2.20;;;1.80;;
17650;SDS011;26663;59.302;18.082;2024-03-07T12:29:06;2.33;;;2.23;;
17650;SDS011;26663;59.302;18.082;2024-03-07T12:32:14;17.03;;;3.00;;
17650;SDS011;26663;59.302;18.082;2024-03-07T12:35:18;6.23;;;2.40;;
17650;SDS011;26663;59.302;18.082;2024-03-07T13:06:24;19.10;;;2.77;;
17650;SDS011;26663;59.302;18.082;2024-03-07T13:09:32;9.48;;;2.60;;
17650;SDS011;26663;59.302;18.082;2024-03-07T13:12:37;6.03;;;2.25;;
17650;SDS011;26663;59.302;18.082;2024-03-07T13:15:45;6.30;;;2.10;;
17650;SDS011;26663;59.302;18.082;2024-03-07T13:18:49;5.90;;;2.10;;
17650;SDS011;26663;59.302;18.082;2024-03-07T13:21:56;31.87;;;3.20;;
17650;SDS011;26663;59.302;18.082;2024-03-07T13:25:00;23.92;;;3.00;;
17650;SDS011;26663;59.302;18.082;2024-03-07T13:28:17;5.03;;;1.93;;
17650;SDS011;26663;59.302;18.082;2024-03-07T13:31:27;9.30;;;1.70;;
17650;SDS011;26663;59.302;18.082;2024-03-07T13:34:32;6.03;;;1.83;;
17650;SDS011;26663;59.302;18.082;2024-03-07T13:37:39;4.07;;;1.67;;
17650;SDS011;26663;59.302;18.082;2024-03-07T13:40:43;4.33;;;1.60;;
17650;SDS011;26663;59.302;18.082;2024-03-07T14:07:13;13.27;;;2.28;;
17650;SDS011;26663;59.302;18.082;2024-03-07T15:04:15;21.73;;;3.10;;
17650;SDS011;26663;59.302;18.082;2024-03-07T15:07:21;31.02;;;2.55;;
17650;SDS011;26663;59.302;18.082;2024-03-07T15:13:30;17.23;;;2.30;;
17650;SDS011;26663;59.302;18.082;2024-03-07T15:16:34;5.85;;;1.70;;
17650;SDS011;26663;59.302;18.082;2024-03-07T15:19:40;10.15;;;1.60;;
17650;SDS011;26663;59.302;18.082;2024-03-07T16:02:45;20.98;;;2.67;;
17650;SDS011;26663;59.302;18.082;2024-03-07T16:05:49;16.92;;;2.17;;
17650;SDS011;26663;59.302;18.082;2024-03-07T16:33:31;10.73;;;1.70;;
17650;SDS011;26663;59.302;18.082;2024-03-07T16:36:36;17.00;;;2.20;;
17650;SDS011;26663;59.302;18.082;2024-03-07T16:39:41;17.33;;;2.37;;
17650;SDS011;26663;59.302;18.082;2024-03-07T16:42:46;8.50;;;2.07;;
17650;SDS011;26663;59.302;18.082;2024-03-07T16:45:53;10.90;;;1.90;;
17650;SDS011;26663;59.302;18.082;2024-03-07T16:48:57;12.52;;;2.17;;
17650;SDS011;26663;59.302;18.082;2024-03-07T16:52:00;7.03;;;1.67;;
17650;SDS011;26663;59.302;18.082;2024-03-07T16:55:07;19.00;;;2.57;;
17650;SDS011;26663;59.302;18.082;2024-03-07T16:58:12;9.37;;;2.17;;
17650;SDS011;26663;59.302;18.082;2024-03-07T17:01:18;15.03;;;2.30;;
17650;SDS011;26663;59.302;18.082;2024-03-07T17:04:22;8.57;;;2.23;;
17650;SDS011;26663;59.302;18.082;2024-03-07T17:07:26;10.47;;;2.23;;
17650;SDS011;26663;59.302;18.082;2024-03-07T17:10:34;18.63;;;2.87;;
17650;SDS011;26663;59.302;18.082;2024-03-07T17:13:42;15.63;;;2.63;;
17650;SDS011;26663;59.302;18.082;2024-03-07T17:16:45;22.50;;;2.20;;
17650;SDS011;26663;59.302;18.082;2024-03-07T17:19:49;27.83;;;3.03;;
17650;SDS011;26663;59.302;18.082;2024-03-07T17:22:53;10.97;;;3.07;;
17650;SDS011;26663;59.302;18.082;2024-03-07T17:25:59;22.80;;;2.57;;
17650;SDS011;26663;59.302;18.082;2024-03-07T17:29:03;13.77;;;2.20;;
17650;SDS011;26663;59.302;18.082;2024-03-07T17:32:08;10.27;;;2.20;;
17650;SDS011;26663;59.302;18.082;2024-03-07T17:35:12;9.10;;;2.67;;
17650;SDS011;26663;59.302;18.082;2024-03-07T17:38:16;14.40;;;2.53;;
17650;SDS011;26663;59.302;18.082;2024-03-07T17:41:24;17.93;;;2.30;;
17650;SDS011;26663;59.302;18.082;2024-03-07T17:44:28;9.83;;;2.73;;
17650;SDS011;26663;59.302;18.082;2024-03-07T17:47:32;12.30;;;2.47;;
17650;SDS011;26663;59.302;18.082;2024-03-07T17:50:37;7.97;;;2.10;;
17650;SDS011;26663;59.302;18.082;2024-03-07T17:53:41;7.17;;;2.20;;
17650;SDS011;26663;59.302;18.082;2024-03-07T17:56:47;20.53;;;2.50;;
17650;SDS011;26663;59.302;18.082;2024-03-07T17:59:51;14.23;;;2.50;;
17650;SDS011;26663;59.302;18.082;2024-03-07T18:02:56;9.53;;;3.07;;
17650;SDS011;26663;59.302;18.082;2024-03-07T18:06:01;11.77;;;2.20;;
17650;SDS011;26663;59.302;18.082;2024-03-07T18:09:06;7.00;;;2.60;;
17650;SDS011;26663;59.302;18.082;2024-03-07T18:12:28;6.00;;;2.20;;
17650;SDS011;26663;59.302;18.082;2024-03-07T18:15:33;12.90;;;2.33;;
17650;SDS011;26663;59.302;18.082;2024-03-07T18:18:42;8.30;;;2.20;;
17650;SDS011;26663;59.302;18.082;2024-03-07T18:21:48;10.53;;;2.57;;
17650;SDS011;26663;59.302;18.082;2024-03-07T18:24:53;8.97;;;2.40;;
17650;SDS011;26663;59.302;18.082;2024-03-07T18:27:58;12.10;;;2.47;;
17650;SDS011;26663;59.302;18.082;2024-03-07T18:31:05;10.67;;;2.73;;
17650;SDS011;26663;59.302;18.082;2024-03-07T18:34:16;14.33;;;2.77;;
17650;SDS011;26663;59.302;18.082;2024-03-07T18:37:20;6.50;;;2.03;;
17650;SDS011;26663;59.302;18.082;2024-03-07T18:40:24;7.33;;;2.23;;
17650;SDS011;26663;59.302;18.082;2024-03-07T18:43:30;2.93;;;2.13;;
17650;SDS011;26663;59.302;18.082;2024-03-07T18:46:33;15.30;;;3.60;;
17650;SDS011;26663;59.302;18.082;2024-03-07T18:49:37;6.87;;;2.43;;
17650;SDS011;26663;59.302;18.082;2024-03-07T18:52:41;4.00;;;1.97;;
17650;SDS011;26663;59.302;18.082;2024-03-07T18:55:46;5.63;;;2.20;;
17650;SDS011;26663;59.302;18.082;2024-03-07T18:58:53;3.67;;;2.03;;
17650;SDS011;26663;59.302;18.082;2024-03-07T19:02:01;14.40;;;2.40;;
17650;SDS011;26663;59.302;18.082;2024-03-07T19:05:12;22.03;;;2.20;;
17650;SDS011;26663;59.302;18.082;2024-03-07T19:08:17;12.67;;;2.47;;
17650;SDS011;26663;59.302;18.082;2024-03-07T19:11:25;10.53;;;2.20;;
17650;SDS011;26663;59.302;18.082;2024-03-07T19:14:31;8.77;;;2.07;;
17650;SDS011;26663;59.302;18.082;2024-03-07T19:17:36;3.20;;;2.00;;
17650;SDS011;26663;59.302;18.082;2024-03-07T19:20:41;5.13;;;2.30;;
17650;SDS011;26663;59.302;18.082;2024-03-07T19:23:45;8.43;;;2.23;;
17650;SDS011;26663;59.302;18.082;2024-03-07T19:26:53;2.53;;;1.97;;
17650;SDS011;26663;59.302;18.082;2024-03-07T19:30:00;12.57;;;2.23;;
17650;SDS011;26663;59.302;18.082;2024-03-07T19:33:04;3.17;;;2.50;;
17650;SDS011;26663;59.302;18.082;2024-03-07T19:36:17;20.27;;;3.93;;
17650;SDS011;26663;59.302;18.082;2024-03-07T19:39:20;3.23;;;2.70;;
17650;SDS011;26663;59.302;18.082;2024-03-07T19:42:24;12.10;;;3.37;;
17650;SDS011;26663;59.302;18.082;2024-03-07T19:45:30;3.10;;;2.40;;
17650;SDS011;26663;59.302;18.082;2024-03-07T19:48:34;12.70;;;3.07;;
17650;SDS011;26663;59.302;18.082;2024-03-07T19:51:38;9.80;;;3.03;;
17650;SDS011;26663;59.302;18.082;2024-03-07T19:54:42;4.00;;;3.30;;
17650;SDS011;26663;59.302;18.082;2024-03-07T19:57:46;4.30;;;3.30;;
17650;SDS011;26663;59.302;18.082;2024-03-07T20:00:52;8.27;;;2.90;;
17650;SDS011;26663;59.302;18.082;2024-03-07T20:03:58;6.73;;;3.27;;
17650;SDS011;26663;59.302;18.082;2024-03-07T20:07:02;8.97;;;3.00;;
17650;SDS011;26663;59.302;18.082;2024-03-07T20:10:07;2.70;;;2.50;;
17650;SDS011;26663;59.302;18.082;2024-03-07T20:13:12;4.13;;;2.67;;
17650;SDS011;26663;59.302;18.082;2024-03-07T20:16:20;9.50;;;2.63;;
17650;SDS011;26663;59.302;18.082;2024-03-07T20:19:24;3.23;;;2.30;;
17650;SDS011;26663;59.302;18.082;2024-03-07T20:22:30;2.90;;;2.70;;
17650;SDS011;26663;59.302;18.082;2024-03-07T20:25:33;5.43;;;2.73;;
17650;SDS011;26663;59.302;18.082;2024-03-07T20:28:40;5.20;;;2.67;;
17650;SDS011;26663;59.302;18.082;2024-03-07T20:31:45;2.80;;;2.60;;
17650;SDS011;26663;59.302;18.082;2024-03-07T20:34:49;2.90;;;2.70;;
17650;SDS011;26663;59.302;18.082;2024-03-07T20:37:53;3.37;;;3.07;;
17650;SDS011;26663;59.302;18.082;2024-03-07T20:40:57;6.13;;;3.10;;
17650;SDS011;26663;59.302;18.082;2024-03-07T20:44:01;3.70;;;2.97;;
17650;SDS011;26663;59.302;18.082;2024-03-07T20:47:06;2.90;;;2.77;;
17650;SDS011;26663;59.302;18.082;2024-03-07T20:50:12;3.10;;;2.83;;
17650;SDS011;26663;59.302;18.082;2024-03-07T20:53:18;8.13;;;4.00;;
17650;SDS011;26663;59.302;18.082;2024-03-07T20:56:22;6.33;;;3.70;;
17650;SDS011;26663;59.302;18.082;2024-03-07T20:59:28;8.87;;;4.07;;
17650;SDS011;26663;59.302;18.082;2024-03-07T21:02:34;12.10;;;3.73;;
17650;SDS011;26663;59.302;18.082;2024-03-07T21:05:38;4.47;;;3.33;;
17650;SDS011;26663;59.302;18.082;2024-03-07T21:08:44;9.03;;;3.73;;
17650;SDS011;26663;59.302;18.082;2024-03-07T21:11:51;7.77;;;3.50;;
17650;SDS011;26663;59.302;18.082;2024-03-07T21:14:55;5.67;;;3.23;;
17650;SDS011;26663;59.302;18.082;2024-03-07T21:18:02;5.17;;;3.37;;
17650;SDS011;26663;59.302;18.082;2024-03-07T21:21:10;3.17;;;2.77;;
17650;SDS011;26663;59.302;18.082;2024-03-07T21:24:15;2.90;;;2.60;;
17650;SDS011;26663;59.302;18.082;2024-03-07T21:27:19;5.30;;;2.53;;
17650;SDS011;26663;59.302;18.082;2024-03-07T21:30:23;2.80;;;2.60;;
17650;SDS011;26663;59.302;18.082;2024-03-07T21:33:29;5.70;;;2.90;;
17650;SDS011;26663;59.302;18.082;2024-03-07T21:36:34;2.50;;;2.40;;
17650;SDS011;26663;59.302;18.082;2024-03-07T21:39:40;3.63;;;2.40;;
17650;SDS011;26663;59.302;18.082;2024-03-07T21:42:44;3.30;;;2.60;;
17650;SDS011;26663;59.302;18.082;2024-03-07T21:45:49;3.60;;;2.60;;